Bucks Bridge, New York
Current Conditions -  °F | °C
As of 3:53 PM on Monday 24 Nov 2014 (Local Time) from KMSS Reporting Station
Scattered Clouds Scattered Clouds  
Wind Chill: 66°   Ceiling: Unl
Heat Index: 66°   Visibility: 10mi
Dew Point: 51°   Wind: 20mph
Humidity: 59%   Direction: 180°S
Pressure: 29.25"   Gusts: 30mph
Location:  44.5792°N, 75.1592°W
Report Text: KMSS 242053Z AUTO 18017G26KT 10SM FEW075 SCT110 19/11 A2925 RMK AO2 PK WND 19030/1956 RAB1957E08 SLP904 P0000 60000 T01890106 56012
Loading
Personal Weather Stations






























Interactive Weather Map New forecast layout! Learn more

10-Day Weather Forecast

Advertisements
Track Severe Weather on mobile